createdAt,value
2023-02-09T00:01:32.260Z,8.33
2023-02-09T00:04:02.740Z,7.10
2023-02-09T00:06:33.803Z,7.10
2023-02-09T00:09:01.639Z,8.10
2023-02-09T00:11:52.007Z,9.20
2023-02-09T00:14:22.109Z,9.47
2023-02-09T00:16:51.407Z,7.63
2023-02-09T00:19:22.569Z,7.33
2023-02-09T00:21:52.673Z,7.93
2023-02-09T00:24:20.025Z,7.80
2023-02-09T00:26:48.210Z,7.37
2023-02-09T00:29:17.009Z,6.73
2023-02-09T00:31:44.661Z,9.43
2023-02-09T00:34:11.964Z,7.10
2023-02-09T00:36:39.440Z,7.93
2023-02-09T00:39:07.220Z,7.97
2023-02-09T00:41:52.953Z,7.90
2023-02-09T00:44:20.467Z,8.00
2023-02-09T00:46:49.706Z,8.30
2023-02-09T00:49:17.101Z,8.23
2023-02-09T00:51:44.898Z,8.87
2023-02-09T00:54:13.662Z,6.33
2023-02-09T00:56:41.116Z,7.87
2023-02-09T00:59:08.764Z,8.13
2023-02-09T01:01:36.444Z,8.50
2023-02-09T01:04:04.988Z,7.87
2023-02-09T01:06:32.762Z,10.53
2023-02-09T01:09:00.356Z,9.20
2023-02-09T01:11:30.423Z,7.93
2023-02-09T01:14:00.514Z,11.03
2023-02-09T01:16:31.934Z,9.77
2023-02-09T01:19:02.213Z,8.70
2023-02-09T01:21:31.288Z,7.90
2023-02-09T01:24:36.650Z,9.10
2023-02-09T01:27:04.440Z,7.57
2023-02-09T01:29:31.803Z,9.70
2023-02-09T01:31:59.376Z,9.90
2023-02-09T01:34:26.897Z,8.77
2023-02-09T01:36:54.066Z,8.67
2023-02-09T01:39:21.561Z,8.17
2023-02-09T01:41:49.418Z,7.97
2023-02-09T01:44:16.580Z,9.23
2023-02-09T01:46:44.857Z,6.07
2023-02-09T01:49:15.778Z,9.50
2023-02-09T01:51:56.020Z,9.90
2023-02-09T01:54:58.408Z,8.70
2023-02-09T01:57:43.108Z,8.93
2023-02-09T02:00:19.766Z,9.13
2023-02-09T02:03:00.021Z,9.07
2023-02-09T02:05:29.156Z,7.13
2023-02-09T02:08:24.779Z,9.30
2023-02-09T02:10:55.056Z,7.87
2023-02-09T02:13:22.580Z,9.37
2023-02-09T02:16:42.590Z,8.97
2023-02-09T02:19:51.899Z,9.87
2023-02-09T02:22:40.573Z,8.43
2023-02-09T02:25:33.780Z,8.97
2023-02-09T02:28:43.008Z,9.50
2023-02-09T02:31:31.842Z,11.13
2023-02-09T02:34:26.710Z,8.60
2023-02-09T02:36:56.919Z,9.00
2023-02-09T02:39:37.735Z,9.63
2023-02-09T02:42:45.473Z,9.80
2023-02-09T02:45:45.025Z,10.30
2023-02-09T02:48:58.639Z,10.87
2023-02-09T02:51:47.374Z,10.80
2023-02-09T02:54:27.847Z,12.07
2023-02-09T02:57:12.974Z,9.33
2023-02-09T02:59:51.525Z,9.83
2023-02-09T03:02:26.515Z,9.77
2023-02-09T03:04:57.818Z,9.93
2023-02-09T03:07:25.261Z,9.57
2023-02-09T03:09:57.730Z,11.57
2023-02-09T03:12:30.940Z,10.43
2023-02-09T03:15:35.696Z,10.17
2023-02-09T03:18:32.164Z,9.33
2023-02-09T03:21:19.442Z,9.43
2023-02-09T03:24:03.786Z,9.63
2023-02-09T03:26:47.464Z,9.73
2023-02-09T03:29:17.835Z,10.80
2023-02-09T03:31:46.783Z,10.13
2023-02-09T03:34:14.481Z,11.17
2023-02-09T03:36:43.508Z,12.57
2023-02-09T03:39:11.290Z,10.43
2023-02-09T03:41:38.948Z,10.07
2023-02-09T03:44:24.718Z,11.50
2023-02-09T03:46:52.324Z,9.93
2023-02-09T03:49:20.114Z,9.47
2023-02-09T03:51:47.514Z,10.37
2023-02-09T03:54:15.214Z,11.33
2023-02-09T03:56:42.737Z,10.70
2023-02-09T03:59:10.407Z,11.67
2023-02-09T04:01:38.039Z,10.17
2023-02-09T04:04:06.380Z,10.47
2023-02-09T04:06:35.296Z,10.23
2023-02-09T04:09:06.186Z,10.90
2023-02-09T04:11:33.695Z,11.13
2023-02-09T04:14:01.210Z,10.63
2023-02-09T04:16:28.543Z,11.73
2023-02-09T04:18:56.082Z,11.30
2023-02-09T04:21:23.861Z,10.67
2023-02-09T04:23:51.272Z,13.00
2023-02-09T04:26:18.638Z,9.53
2023-02-09T04:28:46.194Z,11.73
2023-02-09T04:31:15.666Z,10.47
2023-02-09T04:33:42.954Z,12.73
2023-02-09T04:36:10.491Z,11.30
2023-02-09T04:38:37.959Z,11.23
2023-02-09T04:41:06.146Z,11.60
2023-02-09T04:43:34.828Z,10.73
2023-02-09T04:46:02.775Z,10.17
2023-02-09T04:48:31.170Z,11.67
2023-02-09T04:50:58.524Z,10.90
2023-02-09T04:53:26.374Z,10.03
2023-02-09T04:55:56.047Z,11.17
2023-02-09T04:58:41.842Z,9.43
2023-02-09T05:01:15.396Z,11.53
2023-02-09T05:03:42.884Z,12.00
2023-02-09T05:06:10.240Z,10.37
2023-02-09T05:08:37.680Z,11.63
2023-02-09T05:11:05.196Z,12.43
2023-02-09T05:13:32.665Z,13.17
2023-02-09T05:15:59.967Z,9.60
2023-02-09T05:18:27.571Z,11.83
2023-02-09T05:20:54.926Z,12.57
2023-02-09T05:23:22.464Z,13.10
2023-02-09T05:25:49.878Z,12.00
2023-02-09T05:28:17.300Z,10.37
2023-02-09T05:30:45.172Z,10.97
2023-02-09T05:33:12.790Z,11.03
2023-02-09T05:35:40.064Z,11.80
2023-02-09T05:38:07.373Z,10.10
2023-02-09T05:40:34.776Z,9.87
2023-02-09T05:43:03.501Z,13.33
2023-02-09T05:45:30.935Z,9.97
2023-02-09T05:47:58.410Z,11.00
2023-02-09T05:50:25.958Z,10.30
2023-02-09T05:52:53.353Z,9.60
2023-02-09T05:55:20.966Z,9.93
2023-02-09T05:57:48.444Z,13.27
2023-02-09T06:00:16.492Z,9.53
2023-02-09T06:02:44.118Z,11.37
2023-02-09T06:05:11.582Z,11.73
2023-02-09T06:07:38.876Z,12.70
2023-02-09T06:10:06.647Z,11.87
2023-02-09T06:12:33.886Z,11.10
2023-02-09T06:15:01.481Z,11.10
2023-02-09T06:17:29.169Z,9.67
2023-02-09T06:19:56.643Z,10.73
2023-02-09T06:22:24.301Z,8.90
2023-02-09T06:24:51.926Z,11.13
2023-02-09T06:27:19.291Z,11.17
2023-02-09T06:29:46.684Z,10.57
2023-02-09T06:32:14.117Z,12.07
2023-02-09T06:34:41.517Z,12.40
2023-02-09T06:37:08.889Z,10.90
2023-02-09T06:39:36.670Z,13.13
2023-02-09T06:42:04.153Z,11.53
2023-02-09T06:44:31.939Z,12.70
2023-02-09T06:46:59.781Z,10.80
2023-02-09T06:49:27.318Z,11.30
2023-02-09T06:51:55.298Z,13.13
2023-02-09T06:54:23.140Z,16.23
2023-02-09T06:56:51.067Z,12.83
2023-02-09T06:59:18.523Z,12.60
2023-02-09T07:01:46.103Z,11.10
2023-02-09T07:04:13.482Z,11.73
2023-02-09T07:06:40.925Z,13.47
2023-02-09T07:09:08.579Z,14.73
2023-02-09T07:11:36.072Z,13.80
2023-02-09T07:14:03.528Z,14.30
2023-02-09T07:16:31.380Z,13.93
2023-02-09T07:19:00.771Z,11.57
2023-02-09T07:21:28.832Z,13.23
2023-02-09T07:23:56.689Z,13.13
2023-02-09T07:26:24.216Z,13.20
2023-02-09T07:28:51.455Z,13.90
2023-02-09T07:31:19.003Z,14.43
2023-02-09T07:33:47.255Z,13.03
2023-02-09T07:36:17.160Z,13.97
2023-02-09T07:38:45.065Z,13.97
2023-02-09T07:41:20.698Z,15.23
2023-02-09T07:43:48.788Z,11.70
2023-02-09T07:46:20.372Z,11.20
2023-02-09T07:48:48.506Z,11.97
2023-02-09T07:51:20.370Z,15.37
2023-02-09T07:53:48.538Z,13.30
2023-02-09T07:56:16.096Z,11.90
2023-02-09T07:58:43.970Z,12.47
2023-02-09T08:01:13.868Z,16.87
2023-02-09T08:03:45.018Z,12.37
2023-02-09T08:06:42.908Z,15.47
2023-02-09T08:09:14.440Z,14.10
2023-02-09T08:11:53.776Z,13.83
2023-02-09T08:14:43.417Z,13.97
2023-02-09T08:17:23.560Z,16.77
2023-02-09T08:20:03.751Z,15.00
2023-02-09T08:22:42.281Z,12.07
2023-02-09T08:25:10.724Z,15.57
2023-02-09T08:27:43.406Z,12.83
2023-02-09T08:30:14.885Z,17.90
2023-02-09T08:32:43.421Z,14.37
2023-02-09T08:35:11.410Z,11.50
2023-02-09T08:37:39.153Z,13.87
2023-02-09T08:40:07.301Z,15.47
2023-02-09T08:42:34.757Z,14.10
2023-02-09T08:45:02.634Z,14.53
2023-02-09T08:47:30.160Z,16.67
2023-02-09T08:49:58.567Z,14.10
2023-02-09T08:52:26.552Z,14.83
2023-02-09T08:54:54.084Z,12.00
2023-02-09T08:57:23.105Z,13.87
2023-02-09T08:59:51.851Z,12.30
2023-02-09T09:02:19.590Z,12.97
2023-02-09T09:04:47.366Z,14.50
2023-02-09T09:07:15.582Z,12.37
2023-02-09T09:09:43.156Z,15.90
2023-02-09T09:12:10.965Z,13.20
2023-02-09T09:14:41.442Z,14.67
2023-02-09T09:17:08.758Z,14.63
2023-02-09T09:19:36.444Z,13.97
2023-02-09T09:22:04.158Z,14.37
2023-02-09T09:24:32.414Z,12.63
2023-02-09T09:26:59.875Z,11.97
2023-02-09T09:29:30.529Z,14.57
2023-02-09T09:31:58.137Z,15.03
2023-02-09T09:34:25.691Z,12.33
2023-02-09T09:36:53.566Z,14.20
2023-02-09T09:39:21.234Z,16.03
2023-02-09T09:41:53.683Z,14.93
2023-02-09T09:44:46.224Z,14.50
2023-02-09T09:47:22.568Z,15.10
2023-02-09T09:49:50.540Z,14.57
2023-02-09T09:52:33.899Z,14.00
2023-02-09T09:55:03.395Z,15.30
2023-02-09T09:57:33.668Z,12.83
2023-02-09T10:00:05.302Z,16.17
2023-02-09T10:02:35.009Z,17.13
2023-02-09T10:05:20.334Z,14.67
2023-02-09T10:07:58.308Z,16.50
2023-02-09T10:10:42.006Z,14.37
2023-02-09T10:13:37.384Z,12.40
2023-02-09T10:16:27.039Z,12.37
2023-02-09T10:18:57.712Z,15.47
2023-02-09T10:21:36.702Z,14.23
2023-02-09T10:24:14.812Z,14.73
2023-02-09T10:26:43.285Z,14.00
2023-02-09T10:29:13.518Z,14.60
2023-02-09T10:32:39.475Z,12.03
2023-02-09T10:35:45.366Z,13.67
2023-02-09T10:38:20.664Z,15.10
2023-02-09T10:40:49.228Z,14.93
2023-02-09T10:43:34.034Z,14.03
2023-02-09T10:46:18.115Z,13.07
2023-02-09T10:48:48.456Z,15.83
2023-02-09T10:51:29.302Z,13.70
2023-02-09T10:54:00.563Z,18.07
2023-02-09T10:56:47.062Z,13.27
2023-02-09T10:59:22.608Z,12.43
2023-02-09T11:02:03.472Z,12.33
2023-02-09T11:04:40.305Z,13.13
2023-02-09T11:07:20.623Z,13.40
2023-02-09T11:09:52.075Z,13.63
2023-02-09T11:12:23.268Z,13.77
2023-02-09T11:14:50.891Z,14.50
2023-02-09T11:17:36.784Z,15.63
2023-02-09T11:20:26.025Z,14.50
2023-02-09T11:23:41.934Z,12.97
2023-02-09T11:26:38.434Z,12.47
2023-02-09T11:29:37.985Z,13.13
2023-02-09T11:32:21.123Z,12.70
2023-02-09T11:35:11.477Z,13.23
2023-02-09T11:38:05.559Z,13.17
2023-02-09T11:40:48.368Z,12.43
2023-02-09T11:43:39.700Z,13.23
2023-02-09T11:46:22.466Z,11.97
2023-02-09T11:49:03.690Z,12.13
2023-02-09T11:51:37.628Z,11.27
2023-02-09T11:54:25.429Z,11.33
2023-02-09T11:57:03.751Z,13.30
2023-02-09T11:59:41.976Z,11.33
2023-02-09T12:02:33.797Z,12.33
2023-02-09T12:05:03.277Z,11.03
2023-02-09T12:08:02.631Z,13.77
2023-02-09T12:10:42.824Z,11.83
2023-02-09T12:13:41.226Z,14.60
2023-02-09T12:16:18.610Z,13.17
2023-02-09T12:18:47.444Z,11.27
2023-02-09T12:21:32.741Z,11.70
2023-02-09T12:24:01.834Z,11.53
2023-02-09T12:26:43.517Z,12.00
2023-02-09T12:29:35.658Z,13.03
2023-02-09T12:32:09.363Z,10.27
2023-02-09T12:34:55.196Z,11.37
2023-02-09T12:37:29.947Z,14.03
2023-02-09T12:40:12.945Z,11.27
2023-02-09T12:42:45.300Z,11.83
2023-02-09T12:45:44.320Z,12.27
2023-02-09T12:48:20.266Z,11.97
2023-02-09T12:50:54.018Z,12.13
2023-02-09T12:53:35.925Z,11.67
2023-02-09T12:56:09.387Z,13.13
2023-02-09T12:58:47.530Z,12.40
2023-02-09T13:01:16.777Z,10.80
2023-02-09T13:04:06.177Z,11.57
2023-02-09T13:06:47.075Z,11.00
2023-02-09T13:09:27.310Z,12.83
2023-02-09T13:12:22.738Z,12.53
2023-02-09T13:14:51.727Z,11.23
2023-02-09T13:17:41.999Z,10.37
2023-02-09T13:20:31.321Z,12.73
2023-02-09T13:23:18.090Z,11.10
2023-02-09T13:25:47.533Z,13.20
2023-02-09T13:28:27.335Z,11.23
2023-02-09T13:30:55.120Z,10.90
2023-02-09T13:34:01.682Z,12.27
2023-02-09T13:36:58.802Z,11.40
2023-02-09T13:39:32.078Z,11.70
2023-02-09T13:42:02.058Z,11.63
2023-02-09T13:44:33.243Z,11.90
2023-02-09T13:47:02.740Z,12.00
2023-02-09T13:49:31.743Z,12.47
2023-02-09T13:52:24.140Z,12.00
2023-02-09T13:54:53.481Z,11.60
2023-02-09T13:57:38.843Z,11.97
2023-02-09T14:00:49.082Z,12.97
2023-02-09T14:03:26.562Z,13.47
2023-02-09T14:06:09.233Z,13.47
2023-02-09T14:08:41.208Z,13.47
2023-02-09T14:11:45.913Z,13.80
2023-02-09T14:15:03.235Z,11.50
2023-02-09T14:17:35.964Z,12.23
2023-02-09T14:20:04.314Z,14.13
2023-02-09T14:22:37.017Z,12.63
2023-02-09T14:25:24.020Z,13.10
2023-02-09T14:27:51.911Z,13.10
2023-02-09T14:30:26.417Z,14.13
2023-02-09T14:32:57.503Z,12.90
2023-02-09T14:35:33.971Z,13.40
2023-02-09T14:38:04.001Z,13.57
2023-02-09T14:40:35.309Z,13.00
2023-02-09T14:43:14.722Z,15.37
2023-02-09T14:45:44.776Z,14.67
2023-02-09T14:48:25.180Z,14.87
2023-02-09T14:51:17.858Z,14.53
2023-02-09T14:53:45.529Z,15.37
2023-02-09T14:56:40.260Z,13.40
2023-02-09T14:59:17.265Z,16.73
2023-02-09T15:01:46.663Z,12.90
2023-02-09T15:04:14.524Z,15.37
2023-02-09T15:06:46.414Z,15.93
2023-02-09T15:09:37.482Z,14.83
2023-02-09T15:12:07.808Z,15.47
2023-02-09T15:14:47.829Z,14.50
2023-02-09T15:17:29.114Z,13.97
2023-02-09T15:19:58.527Z,14.50
2023-02-09T15:22:27.224Z,12.50
2023-02-09T15:24:54.980Z,15.90
2023-02-09T15:27:52.750Z,16.30
2023-02-09T15:30:50.186Z,14.73
2023-02-09T15:33:18.126Z,14.93
2023-02-09T15:35:46.467Z,18.27
2023-02-09T15:38:17.113Z,17.57
2023-02-09T15:41:09.274Z,17.70
2023-02-09T15:43:55.704Z,16.13
2023-02-09T15:46:41.707Z,15.03
2023-02-09T15:49:10.018Z,17.07
2023-02-09T15:51:40.277Z,17.00
2023-02-09T15:54:23.564Z,15.50
2023-02-09T15:56:54.259Z,17.00
2023-02-09T15:59:24.001Z,16.87
2023-02-09T16:01:52.845Z,16.43
2023-02-09T16:04:20.601Z,16.67
2023-02-09T16:06:54.993Z,17.40
2023-02-09T16:09:28.196Z,16.07
2023-02-09T16:11:56.169Z,18.30
2023-02-09T16:14:27.557Z,17.03
2023-02-09T16:16:55.896Z,16.93
2023-02-09T16:19:23.957Z,18.37
2023-02-09T16:21:59.401Z,18.30
2023-02-09T16:24:44.908Z,18.93
2023-02-09T16:27:28.293Z,17.00
2023-02-09T16:29:58.436Z,17.87
2023-02-09T16:32:28.923Z,17.83
2023-02-09T16:35:07.339Z,18.60
2023-02-09T16:37:45.660Z,16.40
2023-02-09T16:40:33.272Z,18.20
2023-02-09T16:43:02.353Z,17.70
2023-02-09T16:45:34.911Z,17.07
2023-02-09T16:48:03.095Z,19.60
2023-02-09T16:50:36.035Z,18.70
2023-02-09T16:53:18.302Z,17.33
2023-02-09T16:55:48.925Z,19.60
2023-02-09T16:58:18.779Z,18.67
2023-02-09T17:00:46.851Z,16.93
2023-02-09T17:03:23.547Z,16.63
2023-02-09T17:05:54.623Z,17.77
2023-02-09T17:08:32.932Z,17.73
2023-02-09T17:11:04.787Z,17.77
2023-02-09T17:13:32.845Z,18.27
2023-02-09T17:16:07.038Z,20.63
2023-02-09T17:18:44.310Z,19.87
2023-02-09T17:21:40.117Z,19.43
2023-02-09T17:24:17.333Z,18.20
2023-02-09T17:26:45.628Z,19.50
2023-02-09T17:29:13.263Z,18.27
2023-02-09T17:31:52.930Z,19.83
2023-02-09T17:34:27.390Z,18.37
2023-02-09T17:36:59.607Z,20.83
2023-02-09T17:39:29.991Z,19.27
2023-02-09T17:42:00.139Z,15.90
2023-02-09T17:44:44.622Z,19.30
2023-02-09T17:47:20.554Z,20.80
2023-02-09T17:49:48.407Z,18.20
2023-02-09T17:52:18.694Z,19.43
2023-02-09T17:54:47.298Z,17.63
2023-02-09T17:57:17.684Z,19.80
2023-02-09T17:59:47.128Z,19.53
2023-02-09T18:02:18.498Z,19.27
2023-02-09T18:04:47.264Z,19.33
2023-02-09T18:07:20.810Z,19.90
2023-02-09T18:09:50.865Z,16.67
2023-02-09T18:12:25.426Z,20.23
2023-02-09T18:14:53.565Z,18.60
2023-02-09T18:17:21.067Z,21.97
2023-02-09T18:19:48.617Z,22.70
2023-02-09T18:22:17.619Z,19.60
2023-02-09T18:24:45.637Z,20.43
2023-02-09T18:27:21.338Z,20.57
2023-02-09T18:29:49.125Z,20.27
2023-02-09T18:32:17.410Z,21.17
2023-02-09T18:34:45.060Z,18.87
2023-02-09T18:37:15.792Z,19.33
2023-02-09T18:39:47.120Z,20.67
2023-02-09T18:42:16.688Z,18.87
2023-02-09T18:44:44.489Z,17.77
2023-02-09T18:47:15.257Z,17.60
2023-02-09T18:49:43.052Z,18.90
2023-02-09T18:52:11.203Z,19.40
2023-02-09T18:54:38.744Z,18.30
2023-02-09T18:57:06.121Z,19.77
2023-02-09T18:59:33.771Z,19.00
2023-02-09T19:02:01.585Z,21.33
2023-02-09T19:04:29.407Z,19.83
2023-02-09T19:06:57.666Z,18.67
2023-02-09T19:09:25.584Z,20.17
2023-02-09T19:11:53.134Z,18.40
2023-02-09T19:14:39.204Z,18.43
2023-02-09T19:17:10.357Z,20.83
2023-02-09T19:19:39.179Z,20.70
2023-02-09T19:22:09.623Z,19.90
2023-02-09T19:24:37.263Z,22.33
2023-02-09T19:27:07.127Z,20.67
2023-02-09T19:29:35.709Z,19.77
2023-02-09T19:32:03.371Z,22.20
2023-02-09T19:34:38.890Z,23.83
2023-02-09T19:37:08.496Z,21.87
2023-02-09T19:39:38.608Z,24.40
2023-02-09T19:42:06.667Z,21.80
2023-02-09T19:44:35.538Z,22.37
2023-02-09T19:47:03.027Z,21.63
2023-02-09T19:49:32.785Z,24.67
2023-02-09T19:52:01.561Z,25.43
2023-02-09T19:54:29.052Z,22.27
2023-02-09T19:56:56.768Z,23.73
2023-02-09T19:59:24.247Z,23.43
2023-02-09T20:01:51.737Z,23.33
2023-02-09T20:04:19.378Z,21.63
2023-02-09T20:06:46.716Z,24.20
2023-02-09T20:09:14.192Z,23.67
2023-02-09T20:11:41.791Z,24.53
2023-02-09T20:14:09.415Z,23.60
2023-02-09T20:16:36.913Z,24.37
2023-02-09T20:19:07.428Z,20.20
2023-02-09T20:21:36.019Z,22.53
2023-02-09T20:24:09.626Z,25.57
2023-02-09T20:26:37.067Z,22.10
2023-02-09T20:29:06.128Z,21.87
2023-02-09T20:31:39.900Z,23.87
2023-02-09T20:34:12.517Z,26.80
2023-02-09T20:36:43.163Z,23.80
2023-02-09T20:39:16.258Z,25.27
2023-02-09T20:42:06.236Z,24.87
2023-02-09T20:44:53.950Z,21.50
2023-02-09T20:47:21.501Z,22.67
2023-02-09T20:49:49.165Z,25.00
2023-02-09T20:52:16.584Z,26.10
2023-02-09T20:54:43.999Z,25.80
2023-02-09T20:57:11.391Z,23.87
2023-02-09T20:59:38.967Z,23.67
2023-02-09T21:02:06.885Z,24.90
2023-02-09T21:04:34.473Z,21.27
2023-02-09T21:07:04.364Z,23.60
2023-02-09T21:09:31.830Z,21.50
2023-02-09T21:11:59.287Z,23.70
2023-02-09T21:14:38.097Z,25.20
2023-02-09T21:17:09.048Z,24.83
2023-02-09T21:19:36.813Z,22.93
2023-02-09T21:22:04.589Z,25.33
2023-02-09T21:24:32.113Z,23.43
2023-02-09T21:27:01.061Z,25.73
2023-02-09T21:29:29.490Z,24.93
2023-02-09T21:32:10.342Z,25.93
2023-02-09T21:34:38.524Z,24.27
2023-02-09T21:37:09.289Z,23.83
2023-02-09T21:40:21.633Z,22.77
2023-02-09T21:43:27.865Z,24.00
2023-02-09T21:46:11.779Z,24.20
2023-02-09T21:49:08.752Z,24.47
2023-02-09T21:51:56.341Z,24.37
2023-02-09T21:54:26.518Z,26.90
2023-02-09T21:56:54.920Z,25.87
2023-02-09T21:59:23.372Z,27.93
2023-02-09T22:01:50.681Z,23.63
2023-02-09T22:04:21.453Z,25.70
2023-02-09T22:06:48.805Z,27.93
2023-02-09T22:10:14.444Z,27.73
2023-02-09T22:12:42.156Z,25.93
2023-02-09T22:15:10.290Z,30.37
2023-02-09T22:17:39.184Z,26.27
2023-02-09T22:20:07.194Z,25.07
2023-02-09T22:22:34.850Z,24.87
2023-02-09T22:25:02.415Z,26.47
2023-02-09T22:27:29.849Z,25.00
2023-02-09T22:29:57.268Z,25.97
2023-02-09T22:32:24.913Z,27.03
2023-02-09T22:34:52.276Z,25.77
2023-02-09T22:37:19.768Z,25.60
2023-02-09T22:39:48.010Z,25.37
2023-02-09T22:42:15.477Z,27.17
2023-02-09T22:44:43.695Z,28.97
2023-02-09T22:47:10.928Z,29.27
2023-02-09T22:49:40.562Z,27.20
2023-02-09T22:52:09.173Z,29.60
2023-02-09T22:54:36.770Z,28.90
2023-02-09T22:57:04.202Z,25.13
2023-02-09T22:59:32.023Z,29.33
2023-02-09T23:01:59.215Z,29.93
2023-02-09T23:04:26.655Z,27.53
2023-02-09T23:06:54.058Z,32.40
2023-02-09T23:09:21.563Z,30.87
2023-02-09T23:11:49.124Z,28.40
2023-02-09T23:14:16.855Z,32.13
2023-02-09T23:16:46.357Z,35.60
2023-02-09T23:19:17.323Z,27.83
2023-02-09T23:21:48.890Z,30.50
2023-02-09T23:24:21.995Z,30.30
2023-02-09T23:26:50.061Z,36.00
2023-02-09T23:29:19.598Z,32.90
2023-02-09T23:31:48.736Z,33.53
2023-02-09T23:34:23.048Z,35.73
2023-02-09T23:36:51.105Z,34.50
2023-02-09T23:39:23.560Z,30.37
2023-02-09T23:41:50.995Z,33.87
2023-02-09T23:44:18.775Z,29.80
2023-02-09T23:46:46.523Z,30.97
2023-02-09T23:49:14.140Z,30.20
2023-02-09T23:51:41.789Z,30.43
2023-02-09T23:54:11.014Z,27.57
2023-02-09T23:56:39.273Z,34.03
2023-02-09T23:59:11.701Z,32.90
